Time;durP1;ratioP1;P1;durP2;ratioP2;P2;SDS_P1;SDS_P2;PMS_P1;PMS_P2;Temp;Humidity;BMP_temperature;BMP_pressure;BME280_temperature;BME280_humidity;BME280_pressure;Samples;Min_cycle;Max_cycle;Signal;HPM_P1;HPM_P2
2024/02/24 00:02:01;;;;;;;3.70;1.67;;;13.40;94.30;;;;;;4961017;28;20042;-50
2024/02/24 00:04:28;;;;;;;2.40;1.60;;;13.50;94.00;;;;;;4995297;28;20034;-50
2024/02/24 00:06:55;;;;;;;2.65;1.50;;;13.50;93.80;;;;;;4995306;28;20113;-50
2024/02/24 00:09:21;;;;;;;3.53;1.60;;;13.60;93.60;;;;;;4995222;28;20031;-50
2024/02/24 00:11:47;;;;;;;2.88;1.42;;;13.70;93.60;;;;;;4995163;28;20048;-48
2024/02/24 00:14:13;;;;;;;2.42;1.48;;;13.70;93.70;;;;;;4995030;28;20038;-50
2024/02/24 00:16:38;;;;;;;2.38;1.48;;;13.70;93.60;;;;;;4995077;28;20034;-49
2024/02/24 00:19:05;;;;;;;3.10;1.45;;;13.70;93.60;;;;;;4994984;28;20505;-48
2024/02/24 00:21:31;;;;;;;2.47;1.38;;;13.70;93.70;;;;;;4994848;28;20046;-49
2024/02/24 00:23:57;;;;;;;3.42;1.55;;;13.70;93.70;;;;;;4994859;28;20034;-51
2024/02/24 00:26:22;;;;;;;3.15;1.83;;;13.80;93.70;;;;;;4960759;28;20042;-51
2024/02/24 00:28:49;;;;;;;3.25;1.85;;;13.70;93.80;;;;;;4960800;28;20069;-51
2024/02/24 00:31:15;;;;;;;7.28;5.22;;;13.90;94.70;;;;;;4994541;28;20042;-50
2024/02/24 00:33:41;;;;;;;8.55;6.03;;;14.00;94.70;;;;;;4994870;28;20040;-52
2024/02/24 00:36:07;;;;;;;6.53;4.60;;;13.70;94.00;;;;;;4994647;28;20422;-50
2024/02/24 00:38:33;;;;;;;5.85;3.88;;;13.80;93.90;;;;;;4994707;28;20030;-51
2024/02/24 00:40:58;;;;;;;7.55;3.88;;;13.90;93.70;;;;;;4994506;28;20031;-51
2024/02/24 00:43:24;;;;;;;6.85;3.38;;;14.10;98.90;;;;;;4994627;28;20085;-47
2024/02/24 00:45:50;;;;;;;5.90;3.20;;;14.10;97.80;;;;;;4994569;28;20097;-51
2024/02/24 00:48:15;;;;;;;5.03;2.45;;;14.10;97.70;;;;;;4994571;28;20490;-49
2024/02/24 00:50:41;;;;;;;6.15;2.67;;;13.70;93.80;;;;;;4994384;28;20034;-48
2024/02/24 00:53:07;;;;;;;4.95;2.63;;;13.60;94.10;;;;;;4994201;28;20046;-50
2024/02/24 00:55:32;;;;;;;5.05;2.45;;;13.60;94.20;;;;;;4959133;28;20058;-49
2024/02/24 00:57:58;;;;;;;4.18;2.28;;;13.60;94.00;;;;;;4994472;28;20057;-50
2024/02/24 01:00:24;;;;;;;4.65;2.70;;;13.70;93.90;;;;;;4994277;28;20038;-50
2024/02/24 01:02:50;;;;;;;4.40;2.67;;;13.70;93.70;;;;;;4994378;28;20426;-51
2024/02/24 01:05:16;;;;;;;6.55;2.20;;;13.70;93.60;;;;;;4994126;28;20038;-52
2024/02/24 01:07:42;;;;;;;4.47;2.33;;;13.80;93.80;;;;;;4994251;28;20084;-49
2024/02/24 01:10:08;;;;;;;5.55;2.50;;;13.80;93.90;;;;;;4994008;28;20390;-49
2024/02/24 01:12:34;;;;;;;4.90;2.45;;;13.70;93.80;;;;;;4993862;28;20487;-50
2024/02/24 01:15:00;;;;;;;6.57;2.85;;;13.80;94.10;;;;;;4994009;28;20169;-51
2024/02/24 01:17:26;;;;;;;7.25;2.70;;;13.70;94.10;;;;;;4975959;28;20049;-48
2024/02/24 01:19:51;;;;;;;4.55;2.30;;;13.60;94.30;;;;;;4994377;28;20165;-51
2024/02/24 01:22:17;;;;;;;6.13;2.17;;;13.70;94.30;;;;;;4994008;28;20397;-48
2024/02/24 01:24:43;;;;;;;2.97;1.85;;;13.60;94.30;;;;;;4993918;28;20042;-49
2024/02/24 01:27:09;;;;;;;3.78;1.88;;;13.70;94.40;;;;;;4993891;28;20026;-47
2024/02/24 01:29:35;;;;;;;4.03;2.10;;;13.60;94.60;;;;;;4994007;28;20052;-51
2024/02/24 01:32:01;;;;;;;4.32;1.95;;;13.70;94.70;;;;;;4994005;28;20088;-51
2024/02/24 01:34:30;;;;;;;4.88;2.58;;;13.70;94.80;;;;;;4993759;28;20038;-49
2024/02/24 01:36:56;;;;;;;5.35;2.03;;;13.70;94.40;;;;;;4959545;28;20046;-49
2024/02/24 01:39:22;;;;;;;4.28;1.60;;;13.80;94.50;;;;;;4959948;28;20034;-51
2024/02/24 01:41:48;;;;;;;3.08;1.90;;;13.80;94.40;;;;;;4993856;28;20092;-48
2024/02/24 01:44:18;;;;;;;4.53;2.78;;;13.80;94.10;;;;;;4993976;28;20030;-51
2024/02/24 01:46:47;;;;;;;5.60;2.22;;;13.70;94.20;;;;;;4993816;28;20129;-51
2024/02/24 01:49:14;;;;;;;4.35;2.00;;;13.70;94.10;;;;;;4993689;28;20038;-52
2024/02/24 01:51:41;;;;;;;2.70;1.60;;;13.70;94.20;;;;;;4993810;28;20111;-49
2024/02/24 01:54:08;;;;;;;3.60;1.90;;;13.70;94.00;;;;;;4993620;28;20089;-50
2024/02/24 01:56:37;;;;;;;3.45;2.30;;;13.80;93.90;;;;;;4993887;28;20034;-50
2024/02/24 01:59:03;;;;;;;4.10;1.83;;;13.80;93.80;;;;;;4975853;28;20043;-50
2024/02/24 02:01:30;;;;;;;4.43;2.10;;;13.80;93.90;;;;;;4974073;28;20027;-48
2024/02/24 02:03:56;;;;;;;6.18;2.17;;;13.80;93.80;;;;;;4974190;28;20031;-51
2024/02/24 02:06:24;;;;;;;3.40;1.80;;;13.80;93.90;;;;;;4975080;28;20034;-50
2024/02/24 02:08:50;;;;;;;3.45;2.00;;;13.80;93.90;;;;;;4978131;28;20546;-52
2024/02/24 02:11:16;;;;;;;4.55;1.92;;;13.80;93.90;;;;;;4977841;28;20042;-50
2024/02/24 02:13:41;;;;;;;4.45;2.38;;;13.80;94.00;;;;;;4977848;28;20096;-49
2024/02/24 02:16:07;;;;;;;4.38;2.28;;;13.70;94.20;;;;;;4960011;28;20070;-48
2024/02/24 02:18:33;;;;;;;10.00;2.75;;;13.70;94.40;;;;;;4959781;28;20045;-48
2024/02/24 02:21:00;;;;;;;3.67;2.38;;;13.60;94.40;;;;;;4977910;28;20038;-50
2024/02/24 02:23:25;;;;;;;4.25;2.05;;;13.70;94.30;;;;;;4977227;28;20039;-51
2024/02/24 02:25:51;;;;;;;4.75;2.28;;;13.80;94.20;;;;;;4977737;28;20037;-50
2024/02/24 02:28:17;;;;;;;4.55;2.40;;;13.90;94.00;;;;;;4977666;28;20057;-51
2024/02/24 02:30:42;;;;;;;4.45;1.80;;;13.80;94.20;;;;;;4977557;28;20030;-50
2024/02/24 02:33:08;;;;;;;4.40;2.10;;;13.80;94.20;;;;;;4977590;28;20047;-47
2024/02/24 02:35:34;;;;;;;3.45;1.88;;;13.90;94.30;;;;;;4977477;28;20368;-50
2024/02/24 02:38:00;;;;;;;3.67;2.00;;;13.80;94.20;;;;;;4977265;28;20491;-50
2024/02/24 02:40:26;;;;;;;3.85;2.00;;;13.70;94.40;;;;;;4977474;28;20043;-48
2024/02/24 02:42:52;;;;;;;4.00;1.90;;;13.60;94.70;;;;;;4977546;28;20030;-48
2024/02/24 02:45:18;;;;;;;3.22;1.88;;;13.70;94.70;;;;;;4977526;28;20031;-51
2024/02/24 02:47:44;;;;;;;5.30;2.10;;;13.70;94.50;;;;;;4977179;28;20391;-49
2024/02/24 02:50:09;;;;;;;3.78;1.90;;;13.80;94.50;;;;;;4977506;28;20491;-50
2024/02/24 02:52:35;;;;;;;7.03;1.85;;;13.80;94.30;;;;;;4977047;28;20058;-48
2024/02/24 02:55:01;;;;;;;4.40;1.92;;;13.80;94.30;;;;;;4988240;28;20057;-48
2024/02/24 02:57:27;;;;;;;4.47;1.98;;;13.80;94.20;;;;;;4996610;28;20490;-52
2024/02/24 02:59:53;;;;;;;5.35;2.03;;;13.80;94.20;;;;;;4996503;28;20093;-50
2024/02/24 03:02:18;;;;;;;3.75;1.88;;;13.80;94.20;;;;;;4996428;28;20512;-50
2024/02/24 03:04:44;;;;;;;3.28;1.90;;;13.90;94.30;;;;;;4996594;28;20450;-52
2024/02/24 03:07:10;;;;;;;4.07;1.73;;;13.90;94.20;;;;;;4996408;28;20034;-52
2024/02/24 03:09:36;;;;;;;4.45;1.65;;;13.90;94.10;;;;;;4962133;28;20506;-49
2024/02/24 03:12:01;;;;;;;3.30;1.60;;;13.90;94.00;;;;;;4996193;28;20050;-49
2024/02/24 03:14:27;;;;;;;3.40;1.60;;;14.00;94.00;;;;;;4996228;28;20033;-50
2024/02/24 03:16:54;;;;;;;2.75;1.50;;;14.00;93.90;;;;;;4996185;28;20133;-48
2024/02/24 03:19:20;;;;;;;3.53;1.55;;;14.00;93.90;;;;;;4995263;28;20117;-51
2024/02/24 03:21:46;;;;;;;3.88;1.40;;;14.00;93.80;;;;;;4996106;28;20108;-48
2024/02/24 03:24:12;;;;;;;2.72;1.70;;;14.00;93.90;;;;;;4996402;28;20045;-50
2024/02/24 03:26:39;;;;;;;2.78;1.42;;;13.90;94.00;;;;;;5002181;28;20033;-48
2024/02/24 03:29:05;;;;;;;2.70;1.42;;;14.00;94.00;;;;;;4965134;28;20042;-48
2024/02/24 03:31:31;;;;;;;2.63;1.40;;;14.40;94.10;;;;;;4964806;28;20044;-51
2024/02/24 03:33:57;;;;;;;5.57;1.70;;;14.00;94.10;;;;;;4965134;28;20046;-50
2024/02/24 03:36:24;;;;;;;3.33;1.65;;;14.00;94.20;;;;;;5015388;28;20034;-49
2024/02/24 03:38:49;;;;;;;5.53;2.10;;;13.90;94.20;;;;;;5015257;28;20124;-51
2024/02/24 03:41:15;;;;;;;5.35;2.13;;;13.90;94.20;;;;;;4964813;28;20121;-51
2024/02/24 03:43:41;;;;;;;3.63;2.00;;;13.90;94.30;;;;;;5015228;28;20042;-50
2024/02/24 03:46:07;;;;;;;2.92;1.60;;;13.90;94.30;;;;;;5015348;28;20033;-51
2024/02/24 03:48:33;;;;;;;5.60;1.65;;;13.90;94.10;;;;;;5015341;28;20557;-51
2024/02/24 03:51:00;;;;;;;3.75;1.75;;;13.90;94.10;;;;;;5014891;28;20029;-49
2024/02/24 03:53:28;;;;;;;8.85;7.95;;;14.00;94.20;;;;;;4997028;28;20046;-50
2024/02/24 03:55:53;;;;;;;5.50;2.65;;;13.90;94.20;;;;;;5014857;28;20145;-50
2024/02/24 03:58:19;;;;;;;3.38;2.75;;;13.80;94.60;;;;;;5015073;28;20122;-52
2024/02/24 04:00:45;;;;;;;3.30;1.98;;;13.70;94.70;;;;;;4932602;28;20189;-49
2024/02/24 04:03:11;;;;;;;3.85;2.17;;;13.60;94.90;;;;;;5015064;28;20084;-49
2024/02/24 04:05:37;;;;;;;4.32;3.55;;;13.70;94.90;;;;;;5015205;28;20109;-49
2024/02/24 04:08:03;;;;;;;10.07;2.65;;;13.80;94.80;;;;;;5015009;28;20030;-48
2024/02/24 04:10:30;;;;;;;7.35;4.68;;;;;;;;;;4964364;28;20046;-50
2024/02/24 04:12:56;;;;;;;6.57;4.03;;;;;;;;;;4980087;28;20064;-48
2024/02/24 04:15:22;;;;;;;6.72;3.30;;;13.80;94.10;;;;;;5014712;28;20037;-48
2024/02/24 04:17:49;;;;;;;4.97;3.28;;;13.70;94.50;;;;;;5014736;28;20057;-50
2024/02/24 04:20:15;;;;;;;6.38;3.53;;;13.80;94.30;;;;;;5014678;28;20034;-49
2024/02/24 04:22:41;;;;;;;5.65;2.88;;;13.90;94.60;;;;;;5014705;28;20034;-50
2024/02/24 04:25:08;;;;;;;6.05;3.53;;;13.90;94.40;;;;;;5014494;28;20041;-50
2024/02/24 04:27:34;;;;;;;6.57;3.90;;;13.80;94.40;;;;;;5014527;28;20036;-51
2024/02/24 04:30:00;;;;;;;7.57;4.72;;;13.80;94.50;;;;;;4963897;28;20041;-48
2024/02/24 04:32:27;;;;;;;7.20;4.60;;;13.80;94.50;;;;;;4963846;28;20054;-48
2024/02/24 04:34:52;;;;;;;10.00;7.60;;;13.80;94.60;;;;;;5014248;28;20057;-49
2024/02/24 04:37:18;;;;;;;8.15;5.28;;;13.70;94.60;;;;;;4964105;28;20120;-49
2024/02/24 04:39:44;;;;;;;7.15;3.80;;;13.60;94.70;;;;;;5009245;28;20113;-52
2024/02/24 04:42:10;;;;;;;4.43;3.15;;;13.60;94.90;;;;;;4994486;28;20372;-50
2024/02/24 04:44:35;;;;;;;3.40;2.00;;;13.60;95.30;;;;;;4928491;28;20570;-50
2024/02/24 04:47:01;;;;;;;3.22;1.83;;;13.60;95.30;;;;;;4994657;28;20065;-51
2024/02/24 04:49:27;;;;;;;3.47;1.67;;;13.70;95.30;;;;;;4994561;28;20368;-48
2024/02/24 04:51:52;;;;;;;4.07;2.08;;;13.70;95.40;;;;;;4994417;28;20057;-49
2024/02/24 04:54:18;;;;;;;3.67;1.90;;;13.80;95.60;;;;;;4994147;28;20069;-48
2024/02/24 04:56:44;;;;;;;1.95;1.25;;;13.80;95.50;;;;;;4994165;28;20036;-51
2024/02/24 04:59:10;;;;;;;3.47;1.30;;;13.90;95.40;;;;;;4960337;28;20088;-51
2024/02/24 05:01:35;;;;;;;2.22;1.55;;;13.90;95.40;;;;;;4994442;28;20034;-50
2024/02/24 05:04:02;;;;;;;2.28;1.40;;;14.00;95.30;;;;;;4994313;28;20427;-49
2024/02/24 05:06:28;;;;;;;3.13;1.70;;;14.00;95.20;;;;;;4994352;28;20041;-50
2024/02/24 05:08:54;;;;;;;3.10;1.42;;;14.10;95.10;;;;;;4994048;28;20410;-49
2024/02/24 05:11:20;;;;;;;1.52;1.02;;;14.10;94.90;;;;;;4994455;28;20045;-51
2024/02/24 05:13:46;;;;;;;2.15;1.30;;;14.20;94.90;;;;;;4994417;28;20042;-49
2024/02/24 05:16:13;;;;;;;2.03;1.35;;;14.10;94.70;;;;;;4993877;28;20045;-49
2024/02/24 05:18:39;;;;;;;2.10;1.40;;;14.20;94.50;;;;;;4994059;28;20058;-49
2024/02/24 05:21:05;;;;;;;2.42;1.35;;;14.20;94.30;;;;;;4993630;28;20062;-49
2024/02/24 05:23:30;;;;;;;2.28;1.38;;;14.30;94.20;;;;;;4993851;28;20041;-48
2024/02/24 05:25:56;;;;;;;2.40;1.50;;;14.20;94.40;;;;;;4993675;28;20074;-52
2024/02/24 05:28:22;;;;;;;2.85;1.20;;;14.30;94.20;;;;;;4993951;28;20034;-49
2024/02/24 05:30:48;;;;;;;2.03;1.27;;;14.30;94.20;;;;;;4994113;28;20478;-48
2024/02/24 05:33:17;;;;;;;4.50;1.20;;;14.20;94.40;;;;;;4993969;28;20051;-51
2024/02/24 05:35:43;;;;;;;2.50;1.73;;;14.30;94.40;;;;;;4994080;28;20513;-51
2024/02/24 05:38:09;;;;;;;4.03;1.70;;;14.10;94.40;;;;;;4993948;28;20038;-51
2024/02/24 05:40:34;;;;;;;5.40;1.98;;;14.10;94.60;;;;;;4990630;28;20170;-51
2024/02/24 05:43:00;;;;;;;3.97;1.95;;;14.10;94.70;;;;;;4980944;28;20023;-51
2024/02/24 05:45:26;;;;;;;2.85;1.70;;;14.10;94.90;;;;;;4997913;28;20108;-51
2024/02/24 05:47:52;;;;;;;3.47;1.40;;;14.20;95.00;;;;;;4998101;28;20031;-51
2024/02/24 05:50:17;;;;;;;3.58;1.50;;;14.10;95.20;;;;;;4995460;28;20110;-51
2024/02/24 05:52:43;;;;;;;3.47;1.60;;;14.10;95.30;;;;;;4947553;28;20391;-49
2024/02/24 05:55:09;;;;;;;2.17;1.40;;;14.10;95.40;;;;;;4997115;28;20046;-52
2024/02/24 05:57:35;;;;;;;3.13;1.70;;;14.00;95.80;;;;;;4997583;28;20494;-52
2024/02/24 06:00:04;;;;;;;2.28;1.35;;;14.00;95.80;;;;;;4997655;28;20026;-51
2024/02/24 06:02:30;;;;;;;4.32;1.30;;;13.90;95.90;;;;;;4997469;28;20034;-49
2024/02/24 06:04:56;;;;;;;3.55;1.90;;;13.80;95.60;;;;;;4997531;28;20084;-51
2024/02/24 06:07:21;;;;;;;4.43;2.00;;;13.90;99.90;;;;;;4997478;28;20034;-49
2024/02/24 06:09:47;;;;;;;4.55;2.22;;;13.80;95.60;;;;;;4997653;28;20424;-51
2024/02/24 06:12:13;;;;;;;2.83;1.80;;;14.10;98.40;;;;;;4947301;28;20053;-52
2024/02/24 06:14:39;;;;;;;4.97;1.83;;;14.00;95.60;;;;;;4963278;28;20042;-51
2024/02/24 06:17:04;;;;;;;4.53;3.20;;;14.00;95.30;;;;;;4963096;28;20061;-51
2024/02/24 06:19:30;;;;;;;3.45;1.92;;;14.00;95.60;;;;;;4997209;28;20023;-49
2024/02/24 06:21:56;;;;;;;2.95;2.00;;;13.90;95.30;;;;;;4963055;28;20034;-50
2024/02/24 06:24:21;;;;;;;3.38;1.70;;;14.00;95.30;;;;;;4997112;28;20030;-48
2024/02/24 06:26:47;;;;;;;2.65;1.65;;;14.00;95.20;;;;;;4946946;28;20038;-51
2024/02/24 06:29:15;;;;;;;3.85;1.83;;;14.00;95.00;;;;;;4997062;28;20034;-52
2024/02/24 06:31:41;;;;;;;4.70;1.85;;;14.00;94.90;;;;;;4963559;28;20050;-50
2024/02/24 06:34:07;;;;;;;8.40;4.50;;;14.10;98.90;;;;;;4996907;28;20367;-52
2024/02/24 06:36:33;;;;;;;4.60;3.33;;;14.10;99.90;;;;;;4996860;28;20081;-50
2024/02/24 06:38:59;;;;;;;4.20;2.10;;;14.10;99.90;;;;;;4946983;28;20034;-53
2024/02/24 06:41:24;;;;;;;4.20;2.42;;;14.10;99.90;;;;;;4996995;28;20475;-49
2024/02/24 06:43:53;;;;;;;2.15;1.45;;;14.10;99.90;;;;;;4991984;28;20057;-52
2024/02/24 06:46:19;;;;;;;6.13;2.92;;;14.00;99.90;;;;;;4991711;28;20439;-50
2024/02/24 06:48:45;;;;;;;5.88;2.10;;;13.90;99.90;;;;;;4993537;28;20110;-50
2024/02/24 06:51:11;;;;;;;4.25;2.00;;;13.90;99.90;;;;;;4996127;28;20054;-49
2024/02/24 06:53:37;;;;;;;3.97;1.73;;;13.90;99.90;;;;;;4991788;28;20402;-51
2024/02/24 06:56:08;;;;;;;3.10;1.77;;;14.00;99.90;;;;;;4992879;28;20057;-52
2024/02/24 06:58:35;;;;;;;3.80;1.80;;;14.00;99.90;;;;;;4959261;28;20090;-51
2024/02/24 07:01:01;;;;;;;3.95;1.85;;;14.10;99.90;;;;;;4992885;28;20061;-53
2024/02/24 07:03:27;;;;;;;4.10;2.10;;;14.10;99.90;;;;;;4985121;28;20395;-51
2024/02/24 07:05:53;;;;;;;4.38;1.50;;;14.10;99.90;;;;;;4979585;28;20042;-53
2024/02/24 07:08:18;;;;;;;2.58;1.60;;;14.10;99.90;;;;;;4983585;28;20502;-53
2024/02/24 07:10:44;;;;;;;9.48;1.52;;;14.20;99.90;;;;;;4996223;28;20030;-50
2024/02/24 07:13:10;;;;;;;3.05;1.50;;;14.20;99.90;;;;;;4933954;28;20051;-53
2024/02/24 07:15:36;;;;;;;2.42;1.60;;;14.20;99.90;;;;;;4984456;28;20034;-53
2024/02/24 07:18:01;;;;;;;3.10;1.90;;;14.20;99.90;;;;;;4960543;28;20089;-51
2024/02/24 07:20:28;;;;;;;3.15;1.45;;;;;;;;;;4989751;28;20081;-50
2024/02/24 07:22:54;;;;;;;2.58;1.30;;;;;;;;;;4994315;28;20026;-51
2024/02/24 07:25:20;;;;;;;5.78;2.17;;;;;;;;;;4960905;28;20045;-53
2024/02/24 07:27:46;;;;;;;3.60;1.63;;;;;;;;;;4995603;28;20367;-53
2024/02/24 07:30:12;;;;;;;2.20;1.35;;;;;;;;;;4986103;28;20046;-50
2024/02/24 07:32:38;;;;;;;4.85;1.77;;;;;;;;;;4995588;28;20041;-49
2024/02/24 07:35:05;;;;;;;3.70;2.28;;;;;;;;;;4995866;28;20026;-53
2024/02/24 07:37:31;;;;;;;2.42;1.77;;;;;;;;;;4990262;28;20027;-50
2024/02/24 07:39:57;;;;;;;2.38;1.55;;;;;;;;;;4995211;28;20738;-49
2024/02/24 07:42:24;;;;;;;4.53;1.80;;;14.40;99.90;;;;;;4982022;28;20026;-50
2024/02/24 07:44:50;;;;;;;2.97;1.50;;;;;;;;;;4985544;28;20521;-53
2024/02/24 07:47:17;;;;;;;3.70;1.73;;;14.50;99.90;;;;;;4985330;28;20093;-53
2024/02/24 07:49:43;;;;;;;4.60;1.60;;;14.60;99.90;;;;;;4989210;28;20483;-49
2024/02/24 07:52:09;;;;;;;3.60;1.65;;;14.60;99.90;;;;;;4956745;28;20137;-51
2024/02/24 07:54:35;;;;;;;3.80;1.63;;;14.60;95.60;;;;;;4983195;28;20137;-52
2024/02/24 07:57:01;;;;;;;6.78;1.70;;;;;;;;;;4989779;28;20603;-49
2024/02/24 07:59:27;;;;;;;4.95;1.60;;;;;;;;;;4956238;28;20035;-52
2024/02/24 08:01:53;;;;;;;2.38;1.58;;;;;;;;;;4963943;28;20035;-49
2024/02/24 08:04:20;;;;;;;4.85;1.60;;;;;;;;;;4939107;28;20039;-51
2024/02/24 08:06:46;;;;;;;3.45;1.60;;;;;;;;;;4986698;28;20121;-50
2024/02/24 08:09:12;;;;;;;3.65;1.88;;;;;;;;;;4992388;28;20383;-53
2024/02/24 08:11:41;;;;;;;4.80;1.98;;;;;;;;;;4986840;28;20039;-50
2024/02/24 08:14:08;;;;;;;2.83;1.55;;;;;;;;;;4982728;28;20486;-52
2024/02/24 08:16:34;;;;;;;1.02;0.93;;;;;;;;;;4987538;28;20463;-52
2024/02/24 08:19:01;;;;;;;2.35;1.25;;;;;;;;;;4981009;28;20089;-51
2024/02/24 08:21:28;;;;;;;2.30;0.93;;;;;;;;;;4977766;28;20031;-49
2024/02/24 08:23:54;;;;;;;3.55;2.58;;;;;;;;;;4985453;28;20035;-52
2024/02/24 08:26:21;;;;;;;3.85;1.95;;;;;;;;;;4985110;28;20041;-53
2024/02/24 08:28:47;;;;;;;1.50;1.05;;;;;;;;;;4956672;28;20084;-54
2024/02/24 08:31:13;;;;;;;3.00;1.52;;;;;;;;;;4979054;28;20042;-55
2024/02/24 08:33:42;;;;;;;2.72;1.88;;;;;;;;;;4985449;28;20459;-56
2024/02/24 08:36:08;;;;;;;3.78;2.20;;;;;;;;;;4993435;28;20034;-55
2024/02/24 08:38:34;;;;;;;3.53;2.45;;;;;;;;;;4966888;28;20042;-56
2024/02/24 08:41:00;;;;;;;4.10;2.55;;;;;;;;;;4910866;28;20045;-59
2024/02/24 08:43:26;;;;;;;3.28;1.42;;;;;;;;;;4987798;28;20023;-52
2024/02/24 08:45:52;;;;;;;1.58;1.02;;;;;;;;;;4948441;28;20109;-52
2024/02/24 08:48:19;;;;;;;3.65;1.35;;;;;;;;;;4991990;28;20439;-54
2024/02/24 08:50:45;;;;;;;6.55;1.90;;;;;;;;;;4986207;28;20481;-53
2024/02/24 08:53:11;;;;;;;1.77;1.00;;;;;;;;;;4985685;28;20050;-53
2024/02/24 08:55:37;;;;;;;3.55;2.25;;;;;;;;;;4984693;28;20065;-57
2024/02/24 08:58:03;;;;;;;5.40;2.65;;;;;;;;;;4977460;28;20117;-54
2024/02/24 09:00:30;;;;;;;2.83;2.13;;;;;;;;;;4983194;28;20027;-55
2024/02/24 09:02:56;;;;;;;2.75;1.83;;;;;;;;;;4986873;28;20502;-54
2024/02/24 09:05:22;;;;;;;7.88;4.78;;;15.00;94.50;;;;;;4987796;28;20023;-54
2024/02/24 09:07:48;;;;;;;3.72;2.05;;;15.10;94.70;;;;;;4931600;28;20052;-54
2024/02/24 09:10:13;;;;;;;4.38;2.90;;;15.10;95.10;;;;;;4988999;28;20034;-57
2024/02/24 09:12:39;;;;;;;6.03;3.38;;;15.10;94.70;;;;;;4983600;28;20031;-53
2024/02/24 09:15:06;;;;;;;4.03;2.15;;;;;;;;;;4946007;28;20135;-60
2024/02/24 09:17:32;;;;;;;7.43;2.60;;;;;;;;;;4950503;28;20478;-53
2024/02/24 09:19:58;;;;;;;5.03;3.25;;;;;;;;;;4957614;28;20042;-54
2024/02/24 09:22:25;;;;;;;9.73;3.15;;;;;;;;;;4985659;28;20034;-61
2024/02/24 09:24:51;;;;;;;6.78;3.38;;;;;;;;;;4963590;28;20097;-55
2024/02/24 09:27:17;;;;;;;3.70;2.50;;;;;;;;;;4983500;28;20475;-49
2024/02/24 09:29:43;;;;;;;4.28;2.33;;;;;;;;;;4962804;28;20073;-57
2024/02/24 09:32:09;;;;;;;3.53;1.92;;;;;;;;;;4983792;28;20085;-52
2024/02/24 09:34:35;;;;;;;4.60;2.65;;;;;;;;;;4979460;28;20034;-60
2024/02/24 09:37:03;;;;;;;5.05;3.72;;;;;;;;;;4987376;28;20545;-60
2024/02/24 09:39:29;;;;;;;41.15;21.10;;;;;;;;;;4985534;28;20386;-56
2024/02/24 09:41:59;;;;;;;36.58;26.00;;;;;;;;;;4983179;28;20118;-59
2024/02/24 09:44:27;;;;;;;26.92;20.63;;;;;;;;;;4986468;28;20042;-51
2024/02/24 09:46:53;;;;;;;10.07;8.18;;;;;;;;;;4989315;28;20037;-54
2024/02/24 09:49:20;;;;;;;10.95;6.32;;;;;;;;;;4957162;28;20081;-52
2024/02/24 09:51:48;;;;;;;6.13;4.07;;;;;;;;;;4949949;28;20058;-53
2024/02/24 09:54:14;;;;;;;11.80;3.80;;;;;;;;;;4986999;28;20554;-55
2024/02/24 09:56:40;;;;;;;5.75;4.20;;;;;;;;;;4976446;28;20067;-54
2024/02/24 09:59:06;;;;;;;5.25;3.45;;;15.30;99.90;;;;;;4985731;28;20110;-59
2024/02/24 10:01:36;;;;;;;8.25;4.38;;;15.30;95.30;;;;;;4980463;28;20073;-61
2024/02/24 10:04:03;;;;;;;14.38;6.57;;;15.20;95.30;;;;;;4985123;28;20034;-51
2024/02/24 10:06:29;;;;;;;15.05;8.07;;;;;;;;;;4984158;28;20066;-53
2024/02/24 10:08:55;;;;;;;12.52;6.50;;;;;;;;;;4987392;28;20034;-57
2024/02/24 10:11:21;;;;;;;14.00;7.07;;;;;;;;;;4981037;28;20023;-56
2024/02/24 10:13:47;;;;;;;13.05;6.80;;;;;;;;;;4989273;28;20034;-61
2024/02/24 10:16:13;;;;;;;9.32;6.05;;;;;;;;;;4983133;28;20027;-60
2024/02/24 10:18:42;;;;;;;5.70;4.05;;;;;;;;;;4978921;28;20058;-51
2024/02/24 10:21:09;;;;;;;4.78;3.53;;;;;;;;;;4950377;28;20034;-53
2024/02/24 10:23:35;;;;;;;6.72;3.40;;;;;;;;;;4981903;28;20019;-55
2024/02/24 10:26:04;;;;;;;8.30;3.53;;;;;;;;;;4946291;28;20035;-61
2024/02/24 10:28:30;;;;;;;5.20;3.20;;;15.40;95.60;;;;;;4988409;28;20062;-63
2024/02/24 10:30:59;;;;;;;7.47;3.28;;;15.40;95.70;;;;;;4991035;28;20065;-60
2024/02/24 10:33:26;;;;;;;10.90;6.95;;;15.30;95.60;;;;;;4981136;28;20043;-58
2024/02/24 10:35:54;;;;;;;10.95;6.18;;;15.30;95.40;;;;;;4977579;28;20042;-59
2024/02/24 10:38:21;;;;;;;9.15;4.72;;;15.40;95.50;;;;;;4975937;28;20065;-62
2024/02/24 10:40:48;;;;;;;9.57;6.15;;;15.40;95.50;;;;;;4982252;28;20041;-54
2024/02/24 10:43:16;;;;;;;8.95;4.45;;;15.40;95.60;;;;;;4976940;28;20033;-60
2024/02/24 10:45:42;;;;;;;10.73;4.00;;;15.40;95.60;;;;;;4979141;28;20090;-60
2024/02/24 10:48:07;;;;;;;5.90;3.45;;;15.40;95.50;;;;;;4977000;28;20030;-59
2024/02/24 10:50:34;;;;;;;7.55;5.00;;;15.40;95.80;;;;;;4937009;28;20034;-54
2024/02/24 10:53:01;;;;;;;17.50;8.13;;;15.40;95.60;;;;;;4978870;28;20046;-59
2024/02/24 10:55:29;;;;;;;12.75;7.43;;;15.40;95.60;;;;;;4974740;28;20058;-55
2024/02/24 10:57:56;;;;;;;14.32;6.70;;;15.40;95.50;;;;;;4977973;28;20122;-63
2024/02/24 11:00:31;;;;;;;8.50;5.50;;;15.40;95.10;;;;;;4977907;28;20026;-59
2024/02/24 11:03:01;;;;;;;11.65;5.13;;;15.40;95.50;;;;;;4979517;28;20034;-53
2024/02/24 11:05:28;;;;;;;9.00;4.95;;;15.50;95.70;;;;;;4990477;28;20043;-53
2024/02/24 11:07:54;;;;;;;6.38;4.07;;;;;;;;;;4974737;28;20459;-60
2024/02/24 11:10:20;;;;;;;8.70;4.40;;;;;;;;;;4982415;28;20130;-51
2024/02/24 11:12:50;;;;;;;9.05;5.43;;;15.70;95.60;;;;;;4995452;28;20066;-57
2024/02/24 11:15:27;;;;;;;10.10;5.90;;;15.70;96.10;;;;;;4995245;28;20687;-60
2024/02/24 11:17:56;;;;;;;11.10;6.05;;;15.80;96.20;;;;;;4993807;28;20382;-58
2024/02/24 11:20:34;;;;;;;9.48;5.40;;;15.90;96.10;;;;;;4995514;28;20072;-57
2024/02/24 11:23:26;;;;;;;18.83;9.70;;;16.00;95.90;;;;;;4996332;28;20018;-59
2024/02/24 11:26:10;;;;;;;13.57;7.30;;;;;;;;;;4995945;28;20047;-54
2024/02/24 11:28:37;;;;;;;8.15;4.80;;;;;;;;;;4995236;28;20034;-51
2024/02/24 11:31:03;;;;;;;20.52;11.68;;;;;;;;;;4993676;28;20088;-57
2024/02/24 11:33:37;;;;;;;39.88;10.15;;;;;;;;;;4994889;28;20045;-51
2024/02/24 11:36:04;;;;;;;12.90;6.13;;;;;;;;;;4994908;28;20026;-49
2024/02/24 11:38:31;;;;;;;14.45;8.90;;;;;;;;;;4994514;28;20027;-58
2024/02/24 11:40:57;;;;;;;11.40;8.95;;;;;;;;;;4994404;28;20061;-59
2024/02/24 11:43:43;;;;;;;10.32;8.20;;;;;;;;;;4953244;29;20118;-57
2024/02/24 11:46:11;;;;;;;17.85;9.02;;;;;;;;;;4953765;29;20047;-49
2024/02/24 11:48:37;;;;;;;15.95;10.05;;;17.20;99.90;;;;;;4937496;29;20074;-58
2024/02/24 11:51:04;;;;;;;16.55;8.38;;;17.30;98.30;;;;;;4946718;29;20440;-54
2024/02/24 11:53:30;;;;;;;16.52;7.95;;;17.20;94.30;;;;;;4953457;29;20047;-50
2024/02/24 11:55:56;;;;;;;18.40;9.18;;;17.40;99.90;;;;;;4953279;29;20063;-57
2024/02/24 11:58:22;;;;;;;15.73;9.18;;;17.40;99.90;;;;;;4953410;29;20172;-51
2024/02/24 12:00:47;;;;;;;16.05;8.93;;;17.50;99.90;;;;;;4953365;29;20035;-57
2024/02/24 12:03:14;;;;;;;19.98;9.35;;;17.50;99.90;;;;;;4953232;29;20031;-59
2024/02/24 12:05:41;;;;;;;20.77;12.70;;;;;;;;;;4953420;29;20035;-57
2024/02/24 12:08:18;;;;;;;20.55;10.20;;;;;;;;;;4953170;29;20031;-50
2024/02/24 12:10:44;;;;;;;12.52;8.60;;;;;;;;;;4937066;29;20047;-60
2024/02/24 12:13:12;;;;;;;14.65;8.95;;;17.50;99.90;;;;;;4953086;29;20499;-54
2024/02/24 12:15:43;;;;;;;12.45;10.18;;;17.70;99.90;;;;;;4989554;28;20042;-56
2024/02/24 12:18:10;;;;;;;16.80;9.57;;;17.70;99.90;;;;;;4959781;28;20039;-53
2024/02/24 12:20:41;;;;;;;17.67;11.63;;;17.70;99.90;;;;;;4994100;28;20069;-54
2024/02/24 12:23:08;;;;;;;14.70;8.93;;;17.80;99.90;;;;;;4993947;28;20026;-53
2024/02/24 12:25:35;;;;;;;12.85;8.43;;;;;;;;;;4993954;28;20113;-53
2024/02/24 12:28:04;;;;;;;16.35;8.02;;;17.80;99.90;;;;;;4993760;28;20105;-58
2024/02/24 12:30:38;;;;;;;12.20;8.63;;;17.80;99.90;;;;;;4993900;28;20034;-59
2024/02/24 12:33:05;;;;;;;19.95;8.02;;;17.70;99.90;;;;;;4993401;28;20092;-50
2024/02/24 12:35:31;;;;;;;18.40;8.82;;;17.80;99.90;;;;;;4956632;28;20491;-56
2024/02/24 12:37:57;;;;;;;13.13;8.38;;;17.80;99.90;;;;;;4993658;28;20030;-54
2024/02/24 12:40:34;;;;;;;18.02;9.77;;;17.80;99.90;;;;;;4993477;28;20026;-55
2024/02/24 12:43:01;;;;;;;15.48;9.60;;;17.80;99.90;;;;;;4976036;28;20394;-52
2024/02/24 12:45:28;;;;;;;23.45;15.18;;;17.70;99.90;;;;;;4993557;28;20026;-48
2024/02/24 12:47:53;;;;;;;33.70;22.83;;;17.80;99.90;;;;;;4959094;28;20044;-51
2024/02/24 12:50:24;;;;;;;22.67;13.68;;;17.80;99.90;;;;;;4993462;28;20026;-50
2024/02/24 12:52:50;;;;;;;26.45;21.50;;;17.60;96.90;;;;;;4993386;28;20034;-49
2024/02/24 12:55:17;;;;;;;27.00;17.73;;;17.60;96.70;;;;;;4992763;28;20080;-52
2024/02/24 12:57:43;;;;;;;27.13;14.15;;;17.60;96.50;;;;;;4993442;28;20382;-53
2024/02/24 13:00:09;;;;;;;14.60;9.63;;;17.60;97.00;;;;;;4971667;28;20022;-58
2024/02/24 13:02:36;;;;;;;23.58;12.07;;;17.50;96.10;;;;;;4959078;28;20058;-59
2024/02/24 13:05:02;;;;;;;18.25;9.52;;;17.50;96.50;;;;;;4993177;28;20072;-54
2024/02/24 13:07:28;;;;;;;19.98;8.85;;;17.40;96.60;;;;;;4993316;28;20030;-56